Time;durP1;ratioP1;P1;durP2;ratioP2;P2;SDS_P1;SDS_P2;PMS_P1;PMS_P2;Temp;Humidity;BMP_temperature;BMP_pressure;BME280_temperature;BME280_humidity;BME280_pressure;Samples;Min_cycle;Max_cycle;Signal;HPM_P1;HPM_P2
2021/08/30 00:01:22;;;;;;;2.85;1.65;;;;;;;13.09;96.20;95984.00;4954444;29;20046;-82
2021/08/30 00:03:49;;;;;;;3.38;1.45;;;;;;;13.04;96.42;95982.28;4954761;29;20549;-83
2021/08/30 00:06:16;;;;;;;3.75;2.20;;;;;;;13.02;96.83;95971.69;4951817;29;20043;-84
2021/08/30 00:08:43;;;;;;;2.95;1.75;;;;;;;13.01;96.86;95972.03;4954719;29;20051;-83
2021/08/30 00:11:09;;;;;;;3.58;2.03;;;;;;;13.03;97.43;95965.09;4953690;29;20047;-83
2021/08/30 00:13:36;;;;;;;5.18;2.30;;;;;;;13.06;97.37;95964.41;4954313;29;20051;-84
2021/08/30 00:16:03;;;;;;;4.85;2.40;;;;;;;13.07;97.43;95965.22;4953783;29;20099;-83
2021/08/30 00:18:29;;;;;;;4.10;2.30;;;;;;;13.07;97.43;95959.75;4954175;29;20051;-83
2021/08/30 00:20:57;;;;;;;3.85;2.55;;;;;;;13.09;97.45;95957.44;4954593;29;20048;-84
2021/08/30 00:23:25;;;;;;;2.70;2.05;;;;;;;13.06;97.14;95955.41;4953844;29;20043;-83
2021/08/30 00:25:51;;;;;;;3.60;2.40;;;;;;;13.05;97.24;95953.81;4954192;29;20627;-80
2021/08/30 00:28:18;;;;;;;3.70;2.30;;;;;;;13.09;97.45;95956.66;4953645;29;20058;-83
2021/08/30 00:30:45;;;;;;;4.82;3.00;;;;;;;13.10;97.53;95956.31;4952416;29;20160;-82
2021/08/30 00:33:11;;;;;;;4.50;2.75;;;;;;;13.12;97.59;95956.78;4953348;29;20054;-82
2021/08/30 00:35:38;;;;;;;5.38;3.25;;;;;;;13.09;97.34;95951.97;4954159;29;20058;-82
2021/08/30 00:38:04;;;;;;;5.22;3.08;;;;;;;13.08;97.22;95961.31;4952957;29;20071;-83
2021/08/30 00:40:32;;;;;;;4.55;3.13;;;;;;;13.08;97.40;95950.38;4954204;29;20055;-84
2021/08/30 00:42:59;;;;;;;6.05;3.28;;;;;;;13.10;97.68;95953.56;4953916;29;20051;-84
2021/08/30 00:45:26;;;;;;;6.82;4.22;;;;;;;13.09;97.50;95956.66;4953401;29;20130;-81
2021/08/30 00:47:54;;;;;;;7.63;4.45;;;;;;;13.08;97.51;95961.31;4953848;29;20043;-84
2021/08/30 00:50:20;;;;;;;10.05;4.45;;;;;;;13.12;97.39;95962.25;4953389;29;20050;-85
2021/08/30 00:52:48;;;;;;;8.82;4.57;;;;;;;13.11;97.45;95959.84;4954376;29;20043;-84
2021/08/30 00:55:16;;;;;;;7.22;4.43;;;;;;;13.13;97.52;95954.84;4953284;29;20259;-86
2021/08/30 00:57:44;;;;;;;8.43;5.22;;;;;;;13.13;97.08;95957.56;4953880;29;20047;-81
2021/08/30 01:00:12;;;;;;;8.20;5.03;;;;;;;13.14;97.31;95954.47;4952173;29;20050;-82
2021/08/30 01:02:41;;;;;;;7.05;4.32;;;;;;;13.14;97.10;95959.94;4953417;29;20051;-85
2021/08/30 01:05:09;;;;;;;9.38;4.85;;;;;;;13.14;96.96;95957.22;4952742;28;20047;-84
2021/08/30 01:07:43;;;;;;;8.07;4.63;;;;;;;13.16;96.76;95957.69;4952007;29;20055;-83
2021/08/30 01:10:15;;;;;;;9.57;4.72;;;;;;;13.21;96.94;95948.44;4953019;29;20050;-85
2021/08/30 01:12:50;;;;;;;7.05;4.07;;;;;;;13.20;96.70;95947.63;4953392;29;20061;-83
2021/08/30 01:15:22;;;;;;;7.25;4.57;;;;;;;13.15;96.47;95949.81;4952708;29;20051;-85
2021/08/30 01:17:52;;;;;;;7.20;4.20;;;;;;;13.14;96.56;95954.47;4953281;29;20062;-84
2021/08/30 01:20:25;;;;;;;7.93;4.78;;;;;;;13.15;96.67;95945.13;4952729;29;20058;-82
2021/08/30 01:22:57;;;;;;;9.02;4.55;;;;;;;13.19;96.80;95946.03;4953493;29;20051;-84
2021/08/30 01:25:25;;;;;;;6.65;3.80;;;;;;;13.19;96.42;95940.56;4952966;29;20522;-84
2021/08/30 01:27:55;;;;;;;5.97;3.65;;;;;;;13.16;96.39;95933.09;4953194;29;20082;-83
2021/08/30 01:30:23;;;;;;;8.15;4.00;;;;;;;13.19;96.43;95940.56;4952582;29;20047;-84
2021/08/30 01:32:53;;;;;;;6.20;3.03;;;;;;;13.21;96.48;95938.34;4953134;29;20051;-86
2021/08/30 01:35:22;;;;;;;5.88;2.95;;;;;;;13.21;96.35;95930.13;4952434;29;20055;-84
2021/08/30 01:37:50;;;;;;;3.97;2.58;;;;;;;13.22;96.33;95934.47;4952542;29;20055;-84
2021/08/30 01:40:20;;;;;;;5.45;2.85;;;;;;;13.21;96.49;95932.88;4952389;29;20051;-85
2021/08/30 01:42:51;;;;;;;4.50;2.47;;;;;;;13.23;96.17;95930.56;4953249;29;20043;-85
2021/08/30 01:45:23;;;;;;;5.30;2.63;;;;;;;13.20;96.27;95928.50;4952529;29;20047;-86
2021/08/30 01:47:53;;;;;;;4.03;2.35;;;;;;;13.18;96.44;95925.31;4952970;29;20051;-85
2021/08/30 01:50:22;;;;;;;5.55;2.42;;;;;;;13.19;96.81;95926.91;4952322;29;20062;-86
2021/08/30 01:52:52;;;;;;;4.35;2.63;;;;;;;13.17;96.63;95926.47;4952957;29;20078;-86
2021/08/30 01:55:29;;;;;;;4.38;2.88;;;;;;;13.15;96.62;95928.72;4953368;29;20059;-85
2021/08/30 02:00:45;;;;;;;3.13;2.38;;;;;;;13.06;97.21;95926.13;4951898;29;20053;-85
2021/08/30 02:03:15;;;;;;;3.97;2.45;;;;;;;13.11;97.23;95919.66;4952619;29;20061;-86
2021/08/30 02:05:43;;;;;;;3.10;2.35;;;;;;;13.11;97.38;95922.38;4952825;29;20051;-86
2021/08/30 02:08:10;;;;;;;3.47;2.60;;;;;;;13.14;97.36;95920.88;4951504;29;20418;-85
2021/08/30 02:10:37;;;;;;;6.38;2.80;;;;;;;13.13;97.15;95925.56;4952948;29;20066;-85
2021/08/30 02:13:04;;;;;;;5.95;3.10;;;;;;;13.13;97.37;95922.81;4952253;29;20047;-86
2021/08/30 02:15:30;;;;;;;3.75;2.70;;;;;;;13.14;97.32;95910.75;4954526;28;20051;-85
2021/08/30 02:18:03;;;;;;;5.65;3.25;;;;;;;13.11;97.00;95916.91;4959072;29;20051;-85
2021/08/30 02:20:31;;;;;;;;;;;;;;;13.07;97.19;95911.31;4959529;28;20043;-85
2021/08/30 02:23:02;;;;;;;5.53;2.78;;;;;;;13.08;97.41;95912.13;4959365;28;19929;-86
2021/08/30 02:25:31;;;;;;;4.72;2.95;;;;;;;13.09;97.16;95897.31;4959109;29;20049;-87
2021/08/30 02:28:01;;;;;;;4.55;2.88;;;;;;;13.08;97.03;95898.47;4959039;28;20051;-86
2021/08/30 02:30:32;;;;;;;5.40;3.00;;;;;;;13.05;96.89;95899.97;4958710;28;20425;-86
2021/08/30 02:33:02;;;;;;;6.07;3.22;;;;;;;13.12;97.25;95902.09;4958995;29;20055;-86
2021/08/30 02:35:33;;;;;;;5.10;3.05;;;;;;;13.12;97.03;95899.38;4958761;29;20122;-84
2021/08/30 02:38:02;;;;;;;5.68;3.05;;;;;;;13.13;97.19;95902.88;4958670;29;20047;-85
2021/08/30 02:40:30;;;;;;;5.18;2.90;;;;;;;13.13;97.13;95898.22;4958447;29;20051;-85
2021/08/30 02:43:01;;;;;;;5.45;3.22;;;;;;;13.14;96.98;95899.00;4958729;28;20051;-85
2021/08/30 02:45:29;;;;;;;7.47;3.40;;;;;;;13.13;96.75;95895.47;4958735;29;20490;-86
2021/08/30 02:47:58;;;;;;;6.63;3.30;;;;;;;13.06;96.61;95898.81;4958894;28;20070;-86
2021/08/30 02:50:34;;;;;;;4.13;3.13;;;;;;;13.03;96.81;95901.44;4958462;28;20043;-86
2021/08/30 02:53:02;;;;;;;4.47;2.90;;;;;;;13.01;97.06;95890.06;4958668;29;20059;-86
2021/08/30 02:55:29;;;;;;;5.82;3.03;;;;;;;13.04;97.20;95894.81;4958534;29;20047;-85
2021/08/30 02:57:57;;;;;;;4.80;2.90;;;;;;;13.02;96.99;95895.16;4958622;28;20130;-86
2021/08/30 03:00:23;;;;;;;4.30;3.13;;;;;;;13.03;97.37;95890.50;4957980;28;20491;-83
2021/08/30 03:02:50;;;;;;;5.38;3.50;;;;;;;13.05;97.47;95883.56;4958537;28;20060;-84
2021/08/30 03:05:17;;;;;;;4.97;3.28;;;;;;;13.08;97.06;95884.78;4958229;29;20043;-85
2021/08/30 03:07:48;;;;;;;4.38;3.05;;;;;;;13.04;96.81;95883.88;4957850;29;20062;-85
2021/08/30 03:10:16;;;;;;;4.72;3.25;;;;;;;13.06;97.08;95882.41;4958055;28;20055;-85
2021/08/30 03:12:44;;;;;;;4.72;3.00;;;;;;;13.03;96.70;95879.56;4958450;29;20411;-84
2021/08/30 03:15:14;;;;;;;4.53;3.00;;;;;;;13.02;96.71;95875.25;4957899;29;20074;-84
2021/08/30 03:17:43;;;;;;;5.30;2.60;;;;;;;13.01;96.95;95882.66;4958423;28;20062;-85
2021/08/30 03:20:12;;;;;;;4.75;2.90;;;;;;;13.00;96.88;95872.06;4957665;29;20058;-83
2021/08/30 03:22:41;;;;;;;5.28;3.10;;;;;;;12.98;97.05;95868.88;4958546;28;20140;-86
2021/08/30 03:25:14;;;;;;;5.07;3.00;;;;;;;12.96;97.04;95871.16;4957823;29;20047;-84
2021/08/30 03:27:41;;;;;;;;;;;;;;;12.90;96.79;95867.88;4955778;28;20055;-86
2021/08/30 03:30:09;;;;;;;3.40;2.20;;;;;;;12.89;97.33;95868.97;4954783;29;20004;-84
2021/08/30 03:32:36;;;;;;;5.72;2.20;;;;;;;12.86;97.47;95866.16;4955444;29;20399;-84
2021/08/30 03:35:03;;;;;;;6.35;2.50;;;;;;;12.86;97.57;95863.44;4954837;29;20043;-78
2021/08/30 03:37:31;;;;;;;4.15;2.45;;;;;;;12.87;97.82;95867.75;4954726;29;20582;-82
2021/08/30 03:39:58;;;;;;;5.03;2.30;;;;;;;12.87;97.62;95868.53;4955120;29;20047;-81
2021/08/30 03:42:27;;;;;;;3.72;2.20;;;;;;;12.80;97.55;95865.59;4954620;29;20483;-82
2021/08/30 03:44:54;;;;;;;3.88;1.90;;;;;;;12.80;97.50;95858.19;4955060;29;20051;-78
2021/08/30 03:47:21;;;;;;;3.05;1.90;;;;;;;12.79;97.62;95867.53;4954583;29;20064;-84
2021/08/30 03:49:51;;;;;;;4.32;2.13;;;;;;;12.76;97.87;95873.69;4954995;29;20077;-86
2021/08/30 03:52:18;;;;;;;5.60;2.22;;;;;;;12.76;98.04;95868.22;4954563;29;20047;-85
2021/08/30 03:54:45;;;;;;;3.50;2.28;;;;;;;12.76;98.28;95879.16;4954853;29;20063;-87
2021/08/30 03:57:14;;;;;;;3.90;2.13;;;;;;;12.74;98.19;95875.97;4954442;29;20047;-85
2021/08/30 03:59:45;;;;;;;6.15;2.70;;;;;;;12.75;98.04;95877.56;4954947;29;20066;-87
2021/08/30 04:02:13;;;;;;;3.97;2.53;;;;;;;12.72;98.28;95883.69;4954178;29;20057;-87
2021/08/30 04:04:42;;;;;;;5.93;3.03;;;;;;;12.73;98.48;95881.75;4954674;29;20059;-86
2021/08/30 04:07:09;;;;;;;7.53;3.22;;;;;;;12.73;98.31;95882.56;4954114;29;20051;-84
2021/08/30 04:09:36;;;;;;;4.22;3.03;;;;;;;12.78;98.49;95874.13;4954586;29;20047;-83
2021/08/30 04:12:04;;;;;;;5.45;3.10;;;;;;;12.81;98.41;95875.38;4954044;29;20051;-84
2021/08/30 04:14:31;;;;;;;4.95;3.03;;;;;;;12.84;98.23;95868.44;4954544;29;20063;-85
2021/08/30 04:16:59;;;;;;;4.47;2.70;;;;;;;12.85;97.52;95870.84;4954874;29;20051;-83
2021/08/30 04:19:25;;;;;;;8.23;2.83;;;;;;;12.84;97.49;95873.88;4953843;29;20503;-86
2021/08/30 04:21:52;;;;;;;4.32;2.80;;;;;;;12.89;97.48;95871.72;4953324;29;20058;-82
2021/08/30 04:24:19;;;;;;;6.00;3.10;;;;;;;12.84;97.15;95874.69;4952382;29;20047;-85
2021/08/30 04:26:45;;;;;;;4.13;2.67;;;;;;;12.85;97.52;95875.50;4953645;29;20055;-87
2021/08/30 04:29:12;;;;;;;4.35;3.05;;;;;;;12.82;97.35;95873.44;4953744;29;20058;-85
2021/08/30 04:31:38;;;;;;;5.70;2.90;;;;;;;12.82;97.56;95871.50;4954570;29;20054;-81
2021/08/30 04:34:06;;;;;;;5.78;3.33;;;;;;;12.78;97.44;95876.84;4953281;29;20056;-82
2021/08/30 04:36:33;;;;;;;5.72;2.85;;;;;;;12.79;97.56;95873.00;4953130;29;20046;-86
2021/08/30 04:39:00;;;;;;;4.78;3.03;;;;;;;12.82;97.93;95871.50;4953649;28;20162;-82
2021/08/30 04:41:26;;;;;;;4.60;2.88;;;;;;;12.83;97.76;95875.84;4953504;29;20047;-84
2021/08/30 04:43:53;;;;;;;5.05;2.90;;;;;;;12.83;97.36;95872.31;4953918;29;20052;-83
2021/08/30 04:46:20;;;;;;;6.20;3.50;;;;;;;12.80;97.66;95866.41;4953510;29;20066;-83
2021/08/30 04:48:47;;;;;;;4.63;3.10;;;;;;;12.78;97.77;95865.94;4973313;28;20426;-85
2021/08/30 04:51:15;;;;;;;6.03;3.35;;;;;;;12.81;97.91;95867.19;4972745;28;20051;-83
2021/08/30 04:53:42;;;;;;;7.13;3.30;;;;;;;12.80;97.93;95869.13;4972494;28;20047;-83
2021/08/30 04:56:08;;;;;;;5.05;3.42;;;;;;;12.76;97.46;95868.22;4972533;28;20043;-85
2021/08/30 04:58:36;;;;;;;4.65;3.33;;;;;;;12.76;97.63;95868.22;4972768;28;20058;-85
2021/08/30 05:01:02;;;;;;;5.10;3.40;;;;;;;12.75;97.59;95872.09;4972577;28;20054;-86
2021/08/30 05:03:29;;;;;;;5.00;3.38;;;;;;;12.74;97.59;95878.72;4973067;28;20050;-84
2021/08/30 05:05:55;;;;;;;5.22;3.45;;;;;;;12.77;97.79;95861.59;4971182;28;20529;-84
2021/08/30 05:08:23;;;;;;;5.03;3.33;;;;;;;12.74;97.46;95862.31;4933803;29;20056;-85
2021/08/30 05:10:50;;;;;;;4.68;2.75;;;;;;;12.73;97.52;95857.97;4934048;29;20047;-84
2021/08/30 05:13:16;;;;;;;5.13;2.90;;;;;;;12.74;97.48;95856.84;4933825;29;20043;-83
2021/08/30 05:15:43;;;;;;;4.32;2.70;;;;;;;12.71;97.29;95860.25;4933851;29;20060;-83
2021/08/30 05:18:10;;;;;;;5.30;3.13;;;;;;;12.71;97.50;95846.59;4933878;29;20047;-86
2021/08/30 05:20:36;;;;;;;5.60;3.42;;;;;;;12.68;97.52;95850.00;4933841;29;20513;-85
2021/08/30 05:23:03;;;;;;;5.95;3.17;;;;;;;12.62;97.48;95856.06;4933592;29;20052;-86
2021/08/30 05:25:31;;;;;;;5.82;3.38;;;;;;;12.59;97.97;95852.09;4933611;29;20499;-85
2021/08/30 05:27:57;;;;;;;4.25;2.75;;;;;;;12.59;98.32;95846.63;4933445;29;20052;-86
2021/08/30 05:30:24;;;;;;;11.82;3.28;;;;;;;12.62;98.90;95836.94;4933046;29;20051;-86
2021/08/30 05:32:51;;;;;;;5.72;3.10;;;;;;;12.66;99.19;95835.13;4934121;29;20056;-87
2021/08/30 05:35:17;;;;;;;5.25;3.17;;;;;;;12.69;99.52;95827.03;4935083;29;20043;-87
2021/08/30 05:37:44;;;;;;;3.78;2.72;;;;;;;12.74;99.59;95826.81;4948977;29;20058;-84
2021/08/30 05:40:12;;;;;;;4.93;2.92;;;;;;;12.77;99.44;95819.84;4952484;29;20055;-86
2021/08/30 05:42:39;;;;;;;4.88;2.53;;;;;;;12.77;99.17;95815.16;4953385;29;20047;-86
2021/08/30 05:45:07;;;;;;;6.82;2.35;;;;;;;12.74;98.84;95804.94;4952775;29;20047;-85
2021/08/30 05:47:34;;;;;;;4.22;2.20;;;;;;;12.77;98.89;95809.69;4952894;29;20110;-85
2021/08/30 05:50:00;;;;;;;3.30;1.80;;;;;;;12.76;98.71;95802.66;4952588;28;20062;-85
2021/08/30 05:52:27;;;;;;;4.82;2.22;;;;;;;12.78;98.84;95797.63;4952319;29;20051;-86
2021/08/30 05:54:53;;;;;;;2.70;1.98;;;;;;;12.80;98.51;95789.91;4953228;29;20051;-85
2021/08/30 05:57:20;;;;;;;3.75;1.58;;;;;;;12.77;98.34;95785.13;4952503;29;20053;-86
2021/08/30 05:59:48;;;;;;;4.25;1.92;;;;;;;12.76;98.13;95790.94;4952955;29;20422;-84
2021/08/30 06:02:14;;;;;;;2.78;1.85;;;;;;;12.72;97.98;95782.63;4952201;29;20047;-82
2021/08/30 06:04:41;;;;;;;2.33;1.45;;;;;;;12.61;97.71;95784.25;4952839;29;20055;-86
2021/08/30 06:07:08;;;;;;;5.20;1.80;;;;;;;12.56;97.80;95787.22;4952434;29;20057;-84
2021/08/30 06:09:34;;;;;;;8.10;2.03;;;;;;;12.56;98.21;95773.56;4953225;29;20051;-86
2021/08/30 06:12:01;;;;;;;5.47;1.92;;;;;;;12.61;98.65;95778.78;4952949;29;20055;-85
2021/08/30 06:14:27;;;;;;;3.30;2.00;;;;;;;12.63;98.51;95772.97;4952905;29;20055;-84
2021/08/30 06:16:55;;;;;;;3.38;2.10;;;;;;;12.66;98.53;95770.34;4952904;29;20051;-85
2021/08/30 06:19:22;;;;;;;5.47;2.13;;;;;;;12.68;98.25;95770.78;4951991;29;20051;-86
2021/08/30 06:21:48;;;;;;;5.68;2.42;;;;;;;12.69;98.09;95772.41;4952569;29;20057;-83
2021/08/30 06:24:15;;;;;;;6.20;2.00;;;;;;;12.67;98.26;95765.69;4951793;29;20168;-82
2021/08/30 06:26:42;;;;;;;3.53;1.52;;;;;;;12.70;98.34;95765.00;4952579;29;20047;-84
2021/08/30 06:29:08;;;;;;;3.17;1.70;;;;;;;12.68;98.43;95762.59;4951844;29;20047;-80
2021/08/30 06:31:35;;;;;;;3.15;1.40;;;;;;;12.67;98.00;95755.53;4952354;29;20069;-85
2021/08/30 06:34:03;;;;;;;5.85;1.70;;;;;;;12.70;98.27;95748.59;4952141;29;20050;-83
2021/08/30 06:36:30;;;;;;;1.98;1.30;;;;;;;12.69;98.27;95747.03;4952161;29;20051;-83
2021/08/30 06:38:56;;;;;;;4.00;1.45;;;;;;;12.68;98.03;95745.41;4952027;29;20054;-82
2021/08/30 06:41:23;;;;;;;3.00;1.30;;;;;;;12.64;98.13;95750.78;4951645;29;20059;-84
2021/08/30 06:43:50;;;;;;;3.92;1.25;;;;;;;12.65;98.22;95746.91;4952271;29;20511;-80
2021/08/30 06:46:16;;;;;;;4.30;1.40;;;;;;;12.68;98.39;95740.75;4951706;29;20058;-82
2021/08/30 06:48:43;;;;;;;3.67;1.33;;;;;;;12.70;98.42;95749.41;4952288;29;20047;-84
2021/08/30 06:51:11;;;;;;;1.75;1.15;;;;;;;12.72;98.75;95740.84;4951851;29;20130;-84
2021/08/30 06:53:39;;;;;;;1.88;1.20;;;;;;;12.68;98.77;95742.69;4952336;29;20406;-82
2021/08/30 06:56:06;;;;;;;2.67;1.33;;;;;;;12.70;98.88;95745.88;4952027;29;20097;-82
2021/08/30 06:58:33;;;;;;;2.72;1.63;;;;;;;12.74;99.49;95758.50;4952020;29;20118;-81
2021/08/30 07:00:59;;;;;;;4.25;1.20;;;;;;;12.83;99.42;95763.00;4952008;28;20066;-82
2021/08/30 07:03:26;;;;;;;2.08;1.10;;;;;;;12.85;99.12;95779.88;4955315;29;20057;-85
2021/08/30 07:05:52;;;;;;;2.88;1.50;;;;;;;12.91;99.45;95789.41;4955562;29;20062;-85
2021/08/30 07:08:20;;;;;;;2.65;1.30;;;;;;;13.00;99.54;95801.81;4955703;29;20505;-84
2021/08/30 07:10:47;;;;;;;2.28;1.00;;;;;;;13.13;99.39;95802.53;4955922;29;20051;-84
2021/08/30 07:13:13;;;;;;;1.17;0.70;;;;;;;13.19;97.95;95814.03;4955273;29;20054;-85
2021/08/30 07:15:40;;;;;;;2.97;0.88;;;;;;;13.25;96.41;95824.38;4955747;29;20164;-86
2021/08/30 07:18:06;;;;;;;1.10;0.70;;;;;;;13.29;96.08;95827.22;4955116;29;20695;-85
2021/08/30 07:20:33;;;;;;;1.92;0.60;;;;;;;13.32;96.33;95838.28;4955336;29;20063;-86
2021/08/30 07:23:00;;;;;;;0.63;0.47;;;;;;;13.34;95.93;95848.06;4955248;29;20062;-85
2021/08/30 07:25:28;;;;;;;2.15;0.68;;;;;;;13.43;95.98;95851.44;4955399;29;20051;-86
2021/08/30 07:27:54;;;;;;;0.75;0.40;;;;;;;13.46;94.60;95856.22;4955427;29;20055;-84
2021/08/30 07:30:21;;;;;;;0.47;0.40;;;;;;;13.66;94.29;95870.81;4954808;29;20051;-84
2021/08/30 07:32:48;;;;;;;2.60;0.60;;;;;;;13.85;94.65;95868.22;4955152;29;20043;-84
2021/08/30 07:35:15;;;;;;;0.65;0.40;;;;;;;13.98;95.08;95871.69;4954949;29;20047;-84
2021/08/30 07:37:42;;;;;;;2.92;0.95;;;;;;;14.04;95.19;95881.22;4954226;29;20055;-84
2021/08/30 07:40:10;;;;;;;0.95;0.50;;;;;;;14.10;95.21;95880.63;4954600;29;20048;-82
2021/08/30 07:42:37;;;;;;;2.67;0.85;;;;;;;14.07;94.63;95891.47;4955181;29;20055;-82
2021/08/30 07:45:05;;;;;;;0.65;0.40;;;;;;;14.07;94.74;95888.75;4954614;29;20510;-83
2021/08/30 07:47:31;;;;;;;0.82;0.60;;;;;;;14.06;94.81;95895.38;4955194;29;20058;-84
2021/08/30 07:49:58;;;;;;;0.63;0.40;;;;;;;14.23;95.15;95894.22;4955045;29;20050;-82
2021/08/30 07:52:25;;;;;;;1.75;0.70;;;;;;;14.75;96.14;95898.66;4954500;29;20396;-83
2021/08/30 07:54:51;;;;;;;0.93;0.40;;;;;;;15.49;94.40;95890.50;4954835;29;20058;-80
2021/08/30 07:57:18;;;;;;;1.00;0.40;;;;;;;15.78;91.76;95895.44;4954664;29;20058;-83
2021/08/30 07:59:46;;;;;;;2.03;0.40;;;;;;;16.07;88.16;95895.97;4955121;29;20057;-84
2021/08/30 08:02:12;;;;;;;0.43;0.30;;;;;;;16.13;86.04;95905.50;4954118;29;20696;-81
2021/08/30 08:04:39;;;;;;;0.43;0.35;;;;;;;16.17;85.37;95900.88;4954983;29;20533;-82
2021/08/30 08:07:05;;;;;;;2.17;0.30;;;;;;;16.15;84.62;95903.19;4953691;29;20053;-80
2021/08/30 08:09:32;;;;;;;2.05;0.65;;;;;;;16.11;85.42;95907.81;4954895;29;20055;-80
2021/08/30 08:11:58;;;;;;;1.05;0.55;;;;;;;16.05;84.59;95909.28;4954635;29;20048;-84
2021/08/30 08:14:25;;;;;;;0.77;0.50;;;;;;;16.01;84.94;95920.19;4953635;28;20054;-85
2021/08/30 08:16:54;;;;;;;0.85;0.70;;;;;;;15.93;85.09;95923.97;4954576;29;20051;-82
2021/08/30 08:19:21;;;;;;;1.85;0.73;;;;;;;15.78;85.37;95922.91;4954184;29;20048;-85
2021/08/30 08:21:47;;;;;;;1.75;0.90;;;;;;;15.63;85.54;95921.81;4954466;29;20051;-84
2021/08/30 08:24:14;;;;;;;0.65;0.60;;;;;;;15.51;84.85;95929.38;4953830;29;20058;-84
2021/08/30 08:26:41;;;;;;;1.10;0.50;;;;;;;15.43;85.63;95931.16;4954467;29;20058;-85
2021/08/30 08:29:07;;;;;;;1.13;0.70;;;;;;;15.38;85.60;95942.41;4954038;29;20051;-85
2021/08/30 08:31:34;;;;;;;4.97;2.88;;;;;;;15.30;86.29;95946.94;4954459;29;20130;-87
2021/08/30 08:34:02;;;;;;;4.10;2.00;;;;;;;15.27;87.33;95944.91;4954718;29;20062;-84
2021/08/30 08:36:29;;;;;;;1.33;1.02;;;;;;;15.40;88.56;95942.84;4956789;29;20047;-85
2021/08/30 08:38:55;;;;;;;1.15;0.60;;;;;;;15.51;88.51;95945.81;4954204;29;20047;-84
2021/08/30 08:41:22;;;;;;;2.08;0.70;;;;;;;15.57;88.24;95945.19;4956314;29;20051;-84
2021/08/30 08:43:53;;;;;;;0.98;0.70;;;;;;;15.56;87.49;95942.81;4954528;29;20047;-84
2021/08/30 08:46:21;;;;;;;0.95;0.60;;;;;;;15.43;86.51;95946.81;4950232;29;20442;-85
2021/08/30 08:48:48;;;;;;;1.42;0.80;;;;;;;15.33;86.09;95961.88;4954050;29;20058;-84
2021/08/30 08:51:16;;;;;;;0.90;0.60;;;;;;;15.26;86.67;95959.78;4953488;29;20055;-86
2021/08/30 08:53:43;;;;;;;1.08;0.75;;;;;;;15.14;86.68;95966.19;4953971;29;20134;-79
2021/08/30 08:56:13;;;;;;;2.83;0.80;;;;;;;14.99;87.13;95974.44;4938796;29;20228;-81
2021/08/30 08:58:40;;;;;;;0.82;0.70;;;;;;;14.86;87.95;95982.75;4934135;29;20562;-83
2021/08/30 09:01:10;;;;;;;1.25;0.80;;;;;;;14.67;88.19;95982.66;4932060;29;20051;-82
2021/08/30 09:03:44;;;;;;;0.82;0.50;;;;;;;14.52;88.85;95984.25;4934047;29;20051;-79
2021/08/30 09:06:10;;;;;;;2.13;0.88;;;;;;;14.46;89.45;95991.09;4919599;29;20062;-82
2021/08/30 09:08:41;;;;;;;3.42;1.10;;;;;;;14.34;89.82;95988.41;4953273;29;20046;-85
2021/08/30 09:11:15;;;;;;;2.67;0.80;;;;;;;14.17;90.84;96000.50;4952657;29;20468;-84
2021/08/30 09:13:50;;;;;;;1.60;1.20;;;;;;;14.09;91.41;95998.69;4953735;29;20055;-84
2021/08/30 09:16:18;;;;;;;1.73;0.98;;;;;;;14.05;92.31;96003.28;4951798;29;20062;-84
2021/08/30 09:18:44;;;;;;;2.40;0.88;;;;;;;14.00;92.67;96001.59;4953375;29;20053;-83
2021/08/30 09:21:12;;;;;;;1.88;0.90;;;;;;;13.98;92.79;96003.88;4952772;29;20054;-82
2021/08/30 09:23:41;;;;;;;3.63;1.30;;;;;;;13.90;92.50;96001.28;4953108;29;20047;-79
2021/08/30 09:26:14;;;;;;;1.30;0.80;;;;;;;13.89;92.71;96005.19;4951712;28;20510;-80
2021/08/30 09:28:43;;;;;;;1.65;1.20;;;;;;;13.92;93.01;96016.22;4953006;29;20081;-78
2021/08/30 09:31:12;;;;;;;3.10;1.52;;;;;;;14.00;93.39;96006.28;4952670;29;20062;-80
2021/08/30 09:33:47;;;;;;;2.80;1.67;;;;;;;14.15;93.58;96008.28;4972236;28;20043;-82
2021/08/30 09:36:13;;;;;;;4.15;1.30;;;;;;;14.28;94.35;96012.53;4967592;28;20110;-84
2021/08/30 09:38:42;;;;;;;3.38;1.10;;;;;;;14.34;92.74;96018.53;4951897;29;20055;-84
2021/08/30 09:41:12;;;;;;;2.78;1.00;;;;;;;14.27;90.97;96010.94;4952081;29;20051;-83
2021/08/30 09:43:39;;;;;;;2.08;0.90;;;;;;;14.27;91.52;96012.88;4952998;29;20516;-85
2021/08/30 09:46:08;;;;;;;1.83;1.10;;;;;;;14.32;92.03;96015.38;4950509;29;20414;-81
2021/08/30 09:48:35;;;;;;;1.80;1.00;;;;;;;14.27;90.99;96015.63;4952696;29;20061;-81
2021/08/30 09:51:04;;;;;;;1.05;0.90;;;;;;;14.32;91.31;96018.91;4952459;29;20134;-83
2021/08/30 09:53:32;;;;;;;1.40;1.20;;;;;;;14.31;91.76;96016.53;4952806;29;20059;-81
2021/08/30 09:56:01;;;;;;;1.58;1.10;;;;;;;14.35;91.58;96018.22;4952643;29;20395;-81
2021/08/30 09:58:29;;;;;;;1.70;1.20;;;;;;;14.25;91.55;96020.63;4951680;29;20054;-83
2021/08/30 10:00:59;;;;;;;1.73;1.30;;;;;;;14.13;92.67;96015.22;4952525;29;20052;-79
2021/08/30 10:03:29;;;;;;;1.88;1.55;;;;;;;14.08;93.00;96013.53;4952025;29;20047;-84
2021/08/30 10:05:57;;;;;;;1.58;1.25;;;;;;;14.06;93.17;96016.63;4952242;29;20472;-81
2021/08/30 10:08:23;;;;;;;2.03;1.60;;;;;;;13.97;93.29;96017.91;4932303;29;20047;-79
2021/08/30 10:10:51;;;;;;;2.40;1.40;;;;;;;13.93;93.94;96023.28;4933191;29;20051;-83
2021/08/30 10:13:19;;;;;;;1.98;1.50;;;;;;;13.90;94.52;96028.66;4932909;29;20051;-83
2021/08/30 10:15:49;;;;;;;2.95;1.80;;;;;;;13.94;94.79;96024.06;4933375;29;20134;-84
2021/08/30 10:18:18;;;;;;;3.90;2.55;;;;;;;14.03;95.35;96022.00;4932789;29;20054;-82
2021/08/30 10:20:45;;;;;;;2.90;2.10;;;;;;;14.18;95.43;96032.19;4933118;29;20070;-81
2021/08/30 10:23:12;;;;;;;3.38;2.30;;;;;;;14.20;95.73;96027.19;4932973;29;20051;-82
2021/08/30 10:25:40;;;;;;;4.22;2.58;;;;;;;14.30;96.14;96029.44;4933233;29;20052;-80
2021/08/30 10:28:08;;;;;;;5.72;3.42;;;;;;;14.36;96.04;96036.25;4932732;29;20052;-80
2021/08/30 10:30:38;;;;;;;7.20;3.40;;;;;;;14.44;96.47;96037.22;4933122;29;20056;-83
2021/08/30 10:33:07;;;;;;;6.20;3.40;;;;;;;14.54;96.55;96036.72;4932924;29;20043;-82
2021/08/30 10:35:35;;;;;;;3.85;2.60;;;;;;;14.58;96.56;96028.63;4932265;29;20052;-83
2021/08/30 10:38:04;;;;;;;2.70;2.15;;;;;;;14.65;96.11;96028.78;4952634;29;20099;-80
2021/08/30 10:40:33;;;;;;;4.55;3.08;;;;;;;14.77;96.17;96034.22;4955459;29;20058;-79
2021/08/30 10:43:05;;;;;;;3.10;2.05;;;;;;;14.84;95.95;96037.13;4955343;29;20043;-83
2021/08/30 10:45:39;;;;;;;3.70;1.70;;;;;;;14.84;95.48;96039.88;4955461;29;20053;-80
2021/08/30 10:48:08;;;;;;;3.95;2.38;;;;;;;14.88;95.40;96037.22;4953209;29;20279;-88
2021/08/30 10:50:43;;;;;;;3.42;2.13;;;;;;;14.88;93.54;96054.47;4955749;29;20466;-87
2021/08/30 10:53:15;;;;;;;2.70;1.50;;;;;;;14.81;91.98;96051.53;4955799;29;20051;-87
2021/08/30 10:55:43;;;;;;;5.05;1.70;;;;;;;14.77;92.24;96050.66;4955906;29;20055;-87
2021/08/30 10:58:12;;;;;;;2.65;1.65;;;;;;;14.75;92.45;96050.19;4955647;29;20053;-86
2021/08/30 11:00:41;;;;;;;2.42;1.90;;;;;;;14.77;91.63;96061.63;4956147;29;20055;-87
2021/08/30 11:03:07;;;;;;;2.42;1.88;;;;;;;14.79;91.84;96059.31;4955097;29;20506;-88
2021/08/30 11:05:35;;;;;;;2.67;1.83;;;;;;;14.78;92.14;96055.00;4955752;29;20054;-85
2021/08/30 11:08:02;;;;;;;5.60;2.90;;;;;;;14.78;92.37;96057.72;4955123;29;20047;-86
2021/08/30 11:10:30;;;;;;;5.88;2.53;;;;;;;14.81;93.00;96057.00;4955975;29;20051;-87
2021/08/30 11:12:57;;;;;;;3.47;2.65;;;;;;;14.87;93.38;96061.06;4955203;29;20047;-86
2021/08/30 11:15:32;;;;;;;5.88;3.25;;;;;;;15.01;93.97;96062.59;4953445;29;20053;-87
2021/08/30 11:18:04;;;;;;;3.85;2.47;;;;;;;15.09;94.06;96069.88;4954717;29;20138;-86
2021/08/30 11:20:30;;;;;;;2.63;1.88;;;;;;;15.09;93.79;96070.66;4955086;29;20159;-87
2021/08/30 11:22:57;;;;;;;2.60;1.85;;;;;;;15.16;93.94;96066.50;4955252;29;20134;-87
2021/08/30 11:25:33;;;;;;;2.42;1.83;;;;;;;15.12;92.48;96071.88;4954854;29;20049;-82
2021/08/30 11:28:00;;;;;;;2.42;1.77;;;;;;;15.21;92.54;96058.81;4955391;29;20050;-86
2021/08/30 11:30:27;;;;;;;2.53;1.67;;;;;;;15.27;92.17;96062.88;4954970;29;20134;-87
2021/08/30 11:32:53;;;;;;;3.75;1.80;;;;;;;15.34;91.68;96057.53;4955291;29;20051;-87
2021/08/30 11:35:21;;;;;;;2.83;1.70;;;;;;;15.49;91.09;96071.59;4954382;29;20069;-87
2021/08/30 11:37:48;;;;;;;2.53;1.88;;;;;;;15.64;90.78;96070.81;4955551;29;20058;-87
2021/08/30 11:40:16;;;;;;;5.20;2.10;;;;;;;15.79;90.05;96071.94;4957430;29;20047;-90